PWSweather.com
Personal Weather Stations
Station Observations

Acton, CA 93510

Lat: 34.47703, Lon: -118.17483

Elevation: 2900

Station Type: Davis Vantage Pro 2

http://www.actonastro.com/weather/current.php

Latest ConditionsUpdated 9:46:27 PM PDT Thursday, Oct 30, 2014
Currently Today's Max Today's Min Today's Average
Temperature 57.8°F14.3°C 80.5°F26.9°C 52.5°F11.4°C 65.7°F18.7°C
Dew Point 42.7°F5.9°C 45.4°F7.4°C 17.0°F-8.3°C 27.7°F-2.4°C
Winds 1.0 mph NNW1.6 kmh NNW 13.0 mph NW20.9 kmh NW - 2.9 mph 4.7 kmh
Wind Gusts 1.0 mph1.6 kmh 17.0 mph27.4 kmh - -
Humidity 57% 57% 12% 26%
Pressure 29.79 in1008.8 mb 29.89 in1012.2 mb 29.75 in1007.5 mb -
Hour Temp Dew Point Humidity Winds Wind Gusts Pressure Precip Precip Rate Daily Precip Total
09:46 PM 57.8°F14.3°C 42.7°F5.9°C 57% 1.0 mph NNW1.6 kmh NNW 1.0 mph1.6 kmh 29.79 in1008.8 mb 0.00 in0.0 mm 0.00 in/hr0.0 mm/hr 0.00 in0.0 mm
09:41 PM 58.1°F14.5°C 42.5°F5.8°C 56% 2.0 mph NNW3.2 kmh NNW 4.0 mph6.4 kmh 29.79 in1008.8 mb 0.00 in0.0 mm 0.00 in/hr0.0 mm/hr 0.00 in0.0 mm
09:36 PM 58.4°F14.7°C 42.8°F6.0°C 56% 1.0 mph NW1.6 kmh NW 2.0 mph3.2 kmh 29.79 in1008.8 mb 0.00 in0.0 mm 0.00 in/hr0.0 mm/hr 0.00 in0.0 mm
09:31 PM 58.7°F14.8°C 43.0°F6.1°C 56% Calm Calm -- 29.79 in1008.8 mb 0.00 in0.0 mm 0.00 in/hr0.0 mm/hr 0.00 in0.0 mm
09:26 PM 58.9°F14.9°C 42.8°F6.0°C 55% 2.0 mph NW3.2 kmh NW 3.0 mph4.8 kmh 29.79 in1008.8 mb 0.00 in0.0 mm 0.00 in/hr0.0 mm/hr 0.00 in0.0 mm
09:21 PM 59.2°F15.1°C 43.0°F6.1°C 55% 1.0 mph NW1.6 kmh NW 3.0 mph4.8 kmh 29.79 in1008.8 mb 0.00 in0.0 mm 0.00 in/hr0.0 mm/hr 0.00 in0.0 mm
09:16 PM 59.5°F15.3°C 43.3°F6.3°C 55% 1.0 mph NW1.6 kmh NW 3.0 mph4.8 kmh 29.79 in1008.8 mb 0.00 in0.0 mm 0.00 in/hr0.0 mm/hr 0.00 in0.0 mm
09:11 PM 59.8°F15.4°C 43.1°F6.2°C 54% 2.0 mph NW3.2 kmh NW 3.0 mph4.8 kmh 29.81 in1009.5 mb 0.00 in0.0 mm 0.00 in/hr0.0 mm/hr 0.00 in0.0 mm
09:06 PM 60.4°F15.8°C 43.2°F6.2°C 53% Calm Calm -- 29.81 in1009.5 mb 0.00 in0.0 mm 0.00 in/hr0.0 mm/hr 0.00 in0.0 mm
09:01 PM 60.9°F16.1°C 43.2°F6.2°C 52% Calm Calm 2.0 mph3.2 kmh 29.81 in1009.5 mb 0.00 in0.0 mm 0.00 in/hr0.0 mm/hr 0.00 in0.0 mm
08:56 PM 61.3°F16.3°C 43.0°F6.1°C 51% Calm Calm -- 29.81 in1009.5 mb 0.00 in0.0 mm 0.00 in/hr0.0 mm/hr 0.00 in0.0 mm
08:51 PM 61.5°F16.4°C 43.2°F6.2°C 51% 2.0 mph NW3.2 kmh NW 4.0 mph6.4 kmh 29.81 in1009.5 mb 0.00 in0.0 mm 0.00 in/hr0.0 mm/hr 0.00 in0.0 mm
08:46 PM 61.8°F16.6°C 43.5°F6.4°C 51% 3.0 mph NW4.8 kmh NW 4.0 mph6.4 kmh 29.81 in1009.5 mb 0.00 in0.0 mm 0.00 in/hr0.0 mm/hr 0.00 in0.0 mm
08:41 PM 62.0°F16.7°C 43.7°F6.5°C 51% 2.0 mph NW3.2 kmh NW 4.0 mph6.4 kmh 29.81 in1009.5 mb 0.00 in0.0 mm 0.00 in/hr0.0 mm/hr 0.00 in0.0 mm
08:36 PM 62.1°F16.7°C 43.8°F6.6°C 51% 1.0 mph NW1.6 kmh NW 4.0 mph6.4 kmh 29.81 in1009.5 mb 0.00 in0.0 mm 0.00 in/hr0.0 mm/hr 0.00 in0.0 mm
08:31 PM 62.4°F16.9°C 44.0°F6.7°C 51% 2.0 mph NW3.2 kmh NW 4.0 mph6.4 kmh 29.81 in1009.5 mb 0.00 in0.0 mm 0.00 in/hr0.0 mm/hr 0.00 in0.0 mm
08:26 PM 62.6°F17.0°C 44.2°F6.8°C 51% 3.0 mph NW4.8 kmh NW 6.0 mph9.7 kmh 29.81 in1009.5 mb 0.00 in0.0 mm 0.00 in/hr0.0 mm/hr 0.00 in0.0 mm
08:21 PM 63.1°F17.3°C 44.7°F7.1°C 51% 3.0 mph NW4.8 kmh NW 6.0 mph9.7 kmh 29.81 in1009.5 mb 0.00 in0.0 mm 0.00 in/hr0.0 mm/hr 0.00 in0.0 mm
08:16 PM 63.4°F17.4°C 45.0°F7.2°C 51% 1.0 mph WNW1.6 kmh WNW 8.0 mph12.9 kmh 29.81 in1009.5 mb 0.00 in0.0 mm 0.00 in/hr0.0 mm/hr 0.00 in0.0 mm
08:11 PM 63.5°F17.5°C 45.0°F7.2°C 51% 3.0 mph NW4.8 kmh NW 8.0 mph12.9 kmh 29.83 in1010.2 mb 0.00 in0.0 mm 0.00 in/hr0.0 mm/hr 0.00 in0.0 mm
08:06 PM 63.9°F17.7°C 45.4°F7.4°C 51% 2.0 mph NW3.2 kmh NW 10.0 mph16.1 kmh 29.83 in1010.2 mb 0.00 in0.0 mm 0.00 in/hr0.0 mm/hr 0.00 in0.0 mm
08:01 PM 64.2°F17.9°C 44.6°F7.0°C 49% 3.0 mph W4.8 kmh W 10.0 mph16.1 kmh 29.83 in1010.2 mb 0.00 in0.0 mm 0.00 in/hr0.0 mm/hr 0.00 in0.0 mm
07:56 PM 64.3°F17.9°C 44.7°F7.1°C 49% 6.0 mph NW9.7 kmh NW 10.0 mph16.1 kmh 29.82 in1009.8 mb 0.00 in0.0 mm 0.00 in/hr0.0 mm/hr 0.00 in0.0 mm
07:51 PM 64.5°F18.1°C 44.4°F6.9°C 48% 5.0 mph W8.0 kmh W 10.0 mph16.1 kmh 29.82 in1009.8 mb 0.00 in0.0 mm 0.00 in/hr0.0 mm/hr 0.00 in0.0 mm
07:46 PM 64.7°F18.2°C 44.0°F6.7°C 47% 6.0 mph WNW9.7 kmh WNW 9.0 mph14.5 kmh 29.82 in1009.8 mb 0.00 in0.0 mm 0.00 in/hr0.0 mm/hr 0.00 in0.0 mm
07:41 PM 65.0°F18.3°C 44.3°F6.8°C 47% 3.0 mph WNW4.8 kmh WNW 9.0 mph14.5 kmh 29.82 in1009.8 mb 0.00 in0.0 mm 0.00 in/hr0.0 mm/hr 0.00 in0.0 mm
07:36 PM 65.2°F18.4°C 43.9°F6.6°C 46% 4.0 mph NW6.4 kmh NW 11.0 mph17.7 kmh 29.82 in1009.8 mb 0.00 in0.0 mm 0.00 in/hr0.0 mm/hr 0.00 in0.0 mm
07:31 PM 65.5°F18.6°C 43.6°F6.4°C 45% 8.0 mph NW12.9 kmh NW 11.0 mph17.7 kmh 29.82 in1009.8 mb 0.00 in0.0 mm 0.00 in/hr0.0 mm/hr 0.00 in0.0 mm
07:26 PM 65.6°F18.7°C 43.1°F6.2°C 44% 4.0 mph W6.4 kmh W 16.0 mph25.7 kmh 29.82 in1009.8 mb 0.00 in0.0 mm 0.00 in/hr0.0 mm/hr 0.00 in0.0 mm
07:21 PM 65.8°F18.8°C 42.7°F5.9°C 43% 4.0 mph NW6.4 kmh NW 16.0 mph25.7 kmh 29.82 in1009.8 mb 0.00 in0.0 mm 0.00 in/hr0.0 mm/hr 0.00 in0.0 mm
07:16 PM 66.0°F18.9°C 42.2°F5.7°C 42% 5.0 mph WSW8.0 kmh WSW 16.0 mph25.7 kmh 29.82 in1009.8 mb 0.00 in0.0 mm 0.00 in/hr0.0 mm/hr 0.00 in0.0 mm
07:11 PM 66.1°F18.9°C 42.9°F6.1°C 43% 6.0 mph W9.7 kmh W 16.0 mph25.7 kmh 29.82 in1009.8 mb 0.00 in0.0 mm 0.00 in/hr0.0 mm/hr 0.00 in0.0 mm
07:06 PM 66.3°F19.1°C 43.1°F6.2°C 43% 5.0 mph NW8.0 kmh NW 12.0 mph19.3 kmh 29.82 in1009.8 mb 0.00 in0.0 mm 0.00 in/hr0.0 mm/hr 0.00 in0.0 mm
07:01 PM 66.4°F19.1°C 43.2°F6.2°C 43% 3.0 mph W4.8 kmh W 12.0 mph19.3 kmh 29.82 in1009.8 mb 0.00 in0.0 mm 0.00 in/hr0.0 mm/hr 0.00 in0.0 mm
06:56 PM 66.6°F19.2°C 42.8°F6.0°C 42% 6.0 mph WSW9.7 kmh WSW 12.0 mph19.3 kmh 29.81 in1009.5 mb 0.00 in0.0 mm 0.00 in/hr0.0 mm/hr 0.00 in0.0 mm
06:51 PM 66.8°F19.3°C 42.3°F5.7°C 41% 2.0 mph W3.2 kmh W 12.0 mph19.3 kmh 29.81 in1009.5 mb 0.00 in0.0 mm 0.00 in/hr0.0 mm/hr 0.00 in0.0 mm
06:46 PM 66.9°F19.4°C 41.8°F5.4°C 40% 11.0 mph NW17.7 kmh NW 12.0 mph19.3 kmh 29.81 in1009.5 mb 0.00 in0.0 mm 0.00 in/hr0.0 mm/hr 0.00 in0.0 mm
06:41 PM 67.1°F19.5°C 41.3°F5.2°C 39% 4.0 mph WSW6.4 kmh WSW 12.0 mph19.3 kmh 29.80 in1009.1 mb 0.00 in0.0 mm 0.00 in/hr0.0 mm/hr 0.00 in0.0 mm
06:36 PM 67.1°F19.5°C 41.3°F5.2°C 39% 3.0 mph WSW4.8 kmh WSW 12.0 mph19.3 kmh 29.80 in1009.1 mb 0.00 in0.0 mm 0.00 in/hr0.0 mm/hr 0.00 in0.0 mm
06:31 PM 67.3°F19.6°C 41.5°F5.3°C 39% 6.0 mph W9.7 kmh W 10.0 mph16.1 kmh 29.80 in1009.1 mb 0.00 in0.0 mm 0.00 in/hr0.0 mm/hr 0.00 in0.0 mm
06:26 PM 67.4°F19.7°C 42.9°F6.1°C 41% 4.0 mph WNW6.4 kmh WNW 10.0 mph16.1 kmh 29.78 in1008.5 mb 0.00 in0.0 mm 0.00 in/hr0.0 mm/hr 0.00 in0.0 mm
06:21 PM 67.8°F19.9°C 42.6°F5.9°C 40% 7.0 mph W11.3 kmh W 7.0 mph11.3 kmh 29.78 in1008.5 mb 0.00 in0.0 mm 0.00 in/hr0.0 mm/hr 0.00 in0.0 mm
06:16 PM 67.9°F19.9°C 40.7°F4.8°C 37% 2.0 mph WNW3.2 kmh WNW 5.0 mph8.0 kmh 29.78 in1008.5 mb 0.00 in0.0 mm 0.00 in/hr0.0 mm/hr 0.00 in0.0 mm
06:11 PM 68.3°F20.2°C 41.0°F5.0°C 37% 4.0 mph WNW6.4 kmh WNW 10.0 mph16.1 kmh 29.80 in1009.1 mb 0.00 in0.0 mm 0.00 in/hr0.0 mm/hr 0.00 in0.0 mm
06:06 PM 68.4°F20.2°C 39.7°F4.3°C 35% 2.0 mph WNW3.2 kmh WNW 10.0 mph16.1 kmh 29.80 in1009.1 mb 0.00 in0.0 mm 0.00 in/hr0.0 mm/hr 0.00 in0.0 mm
06:01 PM 68.6°F20.3°C 39.8°F4.3°C 35% 3.0 mph NW4.8 kmh NW 11.0 mph17.7 kmh 29.80 in1009.1 mb 0.00 in0.0 mm 0.00 in/hr0.0 mm/hr 0.00 in0.0 mm
05:56 PM 68.9°F20.5°C 39.4°F4.1°C 34% 6.0 mph W9.7 kmh W 11.0 mph17.7 kmh 29.79 in1008.8 mb 0.00 in0.0 mm 0.00 in/hr0.0 mm/hr 0.00 in0.0 mm
05:51 PM 69.3°F20.7°C 39.0°F3.9°C 33% 11.0 mph W17.7 kmh W 13.0 mph20.9 kmh 29.79 in1008.8 mb 0.00 in0.0 mm 0.00 in/hr0.0 mm/hr 0.00 in0.0 mm
05:46 PM 69.6°F20.9°C 38.4°F3.6°C 32% 4.0 mph NNW6.4 kmh NNW 13.0 mph20.9 kmh 29.79 in1008.8 mb 0.00 in0.0 mm 0.00 in/hr0.0 mm/hr 0.00 in0.0 mm
05:41 PM 69.8°F21.0°C 37.8°F3.2°C 31% 6.0 mph NW9.7 kmh NW 13.0 mph20.9 kmh 29.79 in1008.8 mb 0.00 in0.0 mm 0.00 in/hr0.0 mm/hr 0.00 in0.0 mm
05:36 PM 70.1°F21.2°C 36.4°F2.4°C 29% 7.0 mph W11.3 kmh W 13.0 mph20.9 kmh 29.79 in1008.8 mb 0.00 in0.0 mm 0.00 in/hr0.0 mm/hr 0.00 in0.0 mm
05:31 PM 70.4°F21.3°C 35.7°F2.1°C 28% 5.0 mph NW8.0 kmh NW 15.0 mph24.1 kmh 29.79 in1008.8 mb 0.00 in0.0 mm 0.00 in/hr0.0 mm/hr 0.00 in0.0 mm
05:26 PM 70.8°F21.6°C 36.1°F2.3°C 28% 3.0 mph NW4.8 kmh NW 15.0 mph24.1 kmh 29.79 in1008.8 mb 0.00 in0.0 mm 0.00 in/hr0.0 mm/hr 0.00 in0.0 mm
05:21 PM 71.1°F21.7°C 36.3°F2.4°C 28% 7.0 mph NW11.3 kmh NW 15.0 mph24.1 kmh 29.79 in1008.8 mb 0.00 in0.0 mm 0.00 in/hr0.0 mm/hr 0.00 in0.0 mm
05:16 PM 71.5°F21.9°C 35.8°F2.1°C 27% 4.0 mph NW6.4 kmh NW 15.0 mph24.1 kmh 29.79 in1008.8 mb 0.00 in0.0 mm 0.00 in/hr0.0 mm/hr 0.00 in0.0 mm
05:11 PM 72.1°F22.3°C 36.3°F2.4°C 27% 3.0 mph NNW4.8 kmh NNW 13.0 mph20.9 kmh 29.78 in1008.5 mb 0.00 in0.0 mm 0.00 in/hr0.0 mm/hr 0.00 in0.0 mm
05:06 PM 72.7°F22.6°C 35.8°F2.1°C 26% 9.0 mph WNW14.5 kmh WNW 13.0 mph20.9 kmh 29.78 in1008.5 mb 0.00 in0.0 mm 0.00 in/hr0.0 mm/hr 0.00 in0.0 mm
05:01 PM 73.2°F22.9°C 35.3°F1.8°C 25% 10.0 mph WNW16.1 kmh WNW 13.0 mph20.9 kmh 29.78 in1008.5 mb 0.00 in0.0 mm 0.00 in/hr0.0 mm/hr 0.00 in0.0 mm
04:56 PM 73.7°F23.2°C 34.7°F1.5°C 24% 4.0 mph NW6.4 kmh NW 11.0 mph17.7 kmh 29.78 in1008.5 mb 0.00 in0.0 mm 0.00 in/hr0.0 mm/hr 0.00 in0.0 mm
04:51 PM 74.0°F23.3°C 34.9°F1.6°C 24% 2.0 mph NW3.2 kmh NW 15.0 mph24.1 kmh 29.78 in1008.5 mb 0.00 in0.0 mm 0.00 in/hr0.0 mm/hr 0.00 in0.0 mm
04:46 PM 74.4°F23.6°C 35.2°F1.8°C 24% 6.0 mph NW9.7 kmh NW 15.0 mph24.1 kmh 29.78 in1008.5 mb 0.00 in0.0 mm 0.00 in/hr0.0 mm/hr 0.00 in0.0 mm
04:41 PM 74.6°F23.7°C 35.4°F1.9°C 24% 4.0 mph NW6.4 kmh NW 17.0 mph27.4 kmh 29.77 in1008.1 mb 0.00 in0.0 mm 0.00 in/hr0.0 mm/hr 0.00 in0.0 mm
04:36 PM 74.6°F23.7°C 35.4°F1.9°C 24% 5.0 mph NNW8.0 kmh NNW 17.0 mph27.4 kmh 29.77 in1008.1 mb 0.00 in0.0 mm 0.00 in/hr0.0 mm/hr 0.00 in0.0 mm
04:31 PM 74.9°F23.8°C 35.7°F2.1°C 24% 6.0 mph NW9.7 kmh NW 17.0 mph27.4 kmh 29.77 in1008.1 mb 0.00 in0.0 mm 0.00 in/hr0.0 mm/hr 0.00 in0.0 mm
04:26 PM 75.4°F24.1°C 35.0°F1.7°C 23% 10.0 mph NNW16.1 kmh NNW 17.0 mph27.4 kmh 29.76 in1007.8 mb 0.00 in0.0 mm 0.00 in/hr0.0 mm/hr 0.00 in0.0 mm
04:21 PM 75.8°F24.3°C 35.3°F1.8°C 23% 13.0 mph NW20.9 kmh NW 15.0 mph24.1 kmh 29.76 in1007.8 mb 0.00 in0.0 mm 0.00 in/hr0.0 mm/hr 0.00 in0.0 mm
04:16 PM 76.3°F24.6°C 35.8°F2.1°C 23% 5.0 mph NW8.0 kmh NW 12.0 mph19.3 kmh 29.76 in1007.8 mb 0.00 in0.0 mm 0.00 in/hr0.0 mm/hr 0.00 in0.0 mm
04:11 PM 76.8°F24.9°C 36.2°F2.3°C 23% 10.0 mph WNW16.1 kmh WNW 12.0 mph19.3 kmh 29.75 in1007.5 mb 0.00 in0.0 mm 0.00 in/hr0.0 mm/hr 0.00 in0.0 mm
04:06 PM 77.2°F25.1°C 35.4°F1.9°C 22% 6.0 mph NW9.7 kmh NW 11.0 mph17.7 kmh 29.75 in1007.5 mb 0.00 in0.0 mm 0.00 in/hr0.0 mm/hr 0.00 in0.0 mm
04:01 PM 77.0°F25.0°C 35.2°F1.8°C 22% 3.0 mph W4.8 kmh W 11.0 mph17.7 kmh 29.75 in1007.5 mb 0.00 in0.0 mm 0.00 in/hr0.0 mm/hr 0.00 in0.0 mm
03:56 PM 77.2°F25.1°C 33.0°F0.6°C 20% 4.0 mph W6.4 kmh W 10.0 mph16.1 kmh 29.75 in1007.5 mb 0.00 in0.0 mm 0.00 in/hr0.0 mm/hr 0.00 in0.0 mm
03:51 PM 77.7°F25.4°C 34.6°F1.4°C 21% 5.0 mph WSW8.0 kmh WSW 10.0 mph16.1 kmh 29.75 in1007.5 mb 0.00 in0.0 mm 0.00 in/hr0.0 mm/hr 0.00 in0.0 mm
03:44 PM 77.9°F25.5°C 31.0°F-0.6°C 18% 3.0 mph W4.8 kmh W 14.0 mph22.5 kmh 29.75 in1007.5 mb 0.00 in0.0 mm 0.00 in/hr0.0 mm/hr 0.00 in0.0 mm
03:39 PM 77.7°F25.4°C 33.4°F0.8°C 20% 7.0 mph NNW11.3 kmh NNW 14.0 mph22.5 kmh 29.75 in1007.5 mb 0.00 in0.0 mm 0.00 in/hr0.0 mm/hr 0.00 in0.0 mm
03:34 PM 78.3°F25.7°C 32.6°F0.3°C 19% 9.0 mph NW14.5 kmh NW 14.0 mph22.5 kmh 29.75 in1007.5 mb 0.00 in0.0 mm 0.00 in/hr0.0 mm/hr 0.00 in0.0 mm
03:29 PM 78.6°F25.9°C 31.5°F-0.3°C 18% 4.0 mph WNW6.4 kmh WNW 12.0 mph19.3 kmh 29.75 in1007.5 mb 0.00 in0.0 mm 0.00 in/hr0.0 mm/hr 0.00 in0.0 mm
03:24 PM 79.2°F26.2°C 32.0°F0.0°C 18% 8.0 mph NW12.9 kmh NW 11.0 mph17.7 kmh 29.75 in1007.5 mb 0.00 in0.0 mm 0.00 in/hr0.0 mm/hr 0.00 in0.0 mm
03:19 PM 79.4°F26.3°C 32.2°F0.1°C 18% 3.0 mph WNW4.8 kmh WNW 9.0 mph14.5 kmh 29.75 in1007.5 mb 0.00 in0.0 mm 0.00 in/hr0.0 mm/hr 0.00 in0.0 mm
03:14 PM 79.6°F26.4°C 32.3°F0.2°C 18% 6.0 mph NW9.7 kmh NW 11.0 mph17.7 kmh 29.75 in1007.5 mb 0.00 in0.0 mm 0.00 in/hr0.0 mm/hr 0.00 in0.0 mm
03:09 PM 79.6°F26.4°C 30.9°F-0.6°C 17% 5.0 mph NW8.0 kmh NW 11.0 mph17.7 kmh 29.75 in1007.5 mb 0.00 in0.0 mm 0.00 in/hr0.0 mm/hr 0.00 in0.0 mm
03:04 PM 79.6°F26.4°C 30.9°F-0.6°C 17% 3.0 mph NW4.8 kmh NW 11.0 mph17.7 kmh 29.75 in1007.5 mb 0.00 in0.0 mm 0.00 in/hr0.0 mm/hr 0.00 in0.0 mm
02:59 PM 79.4°F26.3°C 32.2°F0.1°C 18% 3.0 mph WNW4.8 kmh WNW 11.0 mph17.7 kmh 29.75 in1007.5 mb 0.00 in0.0 mm 0.00 in/hr0.0 mm/hr 0.00 in0.0 mm
02:54 PM 79.8°F26.6°C 31.1°F-0.5°C 17% 4.0 mph N6.4 kmh N 10.0 mph16.1 kmh 29.75 in1007.5 mb 0.00 in0.0 mm 0.00 in/hr0.0 mm/hr 0.00 in0.0 mm
02:49 PM 79.9°F26.6°C 31.2°F-0.4°C 17% 4.0 mph NW6.4 kmh NW 15.0 mph24.1 kmh 29.75 in1007.5 mb 0.00 in0.0 mm 0.00 in/hr0.0 mm/hr 0.00 in0.0 mm
02:44 PM 79.9°F26.6°C 31.2°F-0.4°C 17% 9.0 mph WSW14.5 kmh WSW 15.0 mph24.1 kmh 29.75 in1007.5 mb 0.00 in0.0 mm 0.00 in/hr0.0 mm/hr 0.00 in0.0 mm
02:39 PM 79.9°F26.6°C 31.2°F-0.4°C 17% 4.0 mph W6.4 kmh W 17.0 mph27.4 kmh 29.75 in1007.5 mb 0.00 in0.0 mm 0.00 in/hr0.0 mm/hr 0.00 in0.0 mm
02:34 PM 80.5°F26.9°C 31.7°F-0.2°C 17% 5.0 mph NW8.0 kmh NW 17.0 mph27.4 kmh 29.75 in1007.5 mb 0.00 in0.0 mm 0.00 in/hr0.0 mm/hr 0.00 in0.0 mm
02:29 PM 80.1°F26.7°C 31.3°F-0.4°C 17% 9.0 mph WNW14.5 kmh WNW 17.0 mph27.4 kmh 29.75 in1007.5 mb 0.00 in0.0 mm 0.00 in/hr0.0 mm/hr 0.00 in0.0 mm
02:24 PM 79.2°F26.2°C 32.0°F0.0°C 18% 5.0 mph SSW8.0 kmh SSW 17.0 mph27.4 kmh 29.77 in1008.1 mb 0.00 in0.0 mm 0.00 in/hr0.0 mm/hr 0.00 in0.0 mm
02:19 PM 78.3°F25.7°C 26.8°F-2.9°C 15% 4.0 mph SSW6.4 kmh SSW 7.0 mph11.3 kmh 29.77 in1008.1 mb 0.00 in0.0 mm 0.00 in/hr0.0 mm/hr 0.00 in0.0 mm
02:14 PM 77.9°F25.5°C 23.1°F-4.9°C 13% 4.0 mph S6.4 kmh S 6.0 mph9.7 kmh 29.77 in1008.1 mb 0.00 in0.0 mm 0.00 in/hr0.0 mm/hr 0.00 in0.0 mm
02:09 PM 77.7°F25.4°C 26.4°F-3.1°C 15% 2.0 mph E3.2 kmh E 6.0 mph9.7 kmh 29.76 in1007.8 mb 0.00 in0.0 mm 0.00 in/hr0.0 mm/hr 0.00 in0.0 mm
02:04 PM 77.9°F25.5°C 24.9°F-3.9°C 14% 6.0 mph E9.7 kmh E 12.0 mph19.3 kmh 29.76 in1007.8 mb 0.00 in0.0 mm 0.00 in/hr0.0 mm/hr 0.00 in0.0 mm
01:59 PM 78.5°F25.8°C 23.6°F-4.7°C 13% 5.0 mph NE8.0 kmh NE 12.0 mph19.3 kmh 29.76 in1007.8 mb 0.00 in0.0 mm 0.00 in/hr0.0 mm/hr 0.00 in0.0 mm
01:54 PM 79.4°F26.3°C 24.3°F-4.3°C 13% 3.0 mph ESE4.8 kmh ESE 12.0 mph19.3 kmh 29.77 in1008.1 mb 0.00 in0.0 mm 0.00 in/hr0.0 mm/hr 0.00 in0.0 mm
01:49 PM 79.6°F26.4°C 24.4°F-4.2°C 13% 3.0 mph E4.8 kmh E 12.0 mph19.3 kmh 29.77 in1008.1 mb 0.00 in0.0 mm 0.00 in/hr0.0 mm/hr 0.00 in0.0 mm
01:44 PM 79.8°F26.6°C 22.7°F-5.2°C 12% 1.0 mph ESE1.6 kmh ESE 9.0 mph14.5 kmh 29.77 in1008.1 mb 0.00 in0.0 mm 0.00 in/hr0.0 mm/hr 0.00 in0.0 mm
01:39 PM 80.3°F26.8°C 26.8°F-2.9°C 14% 5.0 mph ENE8.0 kmh ENE 9.0 mph14.5 kmh 29.77 in1008.1 mb 0.00 in0.0 mm 0.00 in/hr0.0 mm/hr 0.00 in0.0 mm
01:34 PM 80.1°F26.7°C 26.6°F-3.0°C 14% 5.0 mph E8.0 kmh E 11.0 mph17.7 kmh 29.77 in1008.1 mb 0.00 in0.0 mm 0.00 in/hr0.0 mm/hr 0.00 in0.0 mm
01:29 PM 79.6°F26.4°C 24.4°F-4.2°C 13% 4.0 mph E6.4 kmh E 11.0 mph17.7 kmh 29.77 in1008.1 mb 0.00 in0.0 mm 0.00 in/hr0.0 mm/hr 0.00 in0.0 mm
01:24 PM 79.6°F26.4°C 24.4°F-4.2°C 13% 4.0 mph E6.4 kmh E 13.0 mph20.9 kmh 29.77 in1008.1 mb 0.00 in0.0 mm 0.00 in/hr0.0 mm/hr 0.00 in0.0 mm
01:19 PM 79.6°F26.4°C 24.4°F-4.2°C 13% 5.0 mph E8.0 kmh E 13.0 mph20.9 kmh 29.77 in1008.1 mb 0.00 in0.0 mm 0.00 in/hr0.0 mm/hr 0.00 in0.0 mm
01:14 PM 79.8°F26.6°C 24.6°F-4.1°C 13% 2.0 mph S3.2 kmh S 13.0 mph20.9 kmh 29.77 in1008.1 mb 0.00 in0.0 mm 0.00 in/hr0.0 mm/hr 0.00 in0.0 mm
01:09 PM 80.1°F26.7°C 29.8°F-1.2°C 16% 10.0 mph E16.1 kmh E 13.0 mph20.9 kmh 29.78 in1008.5 mb 0.00 in0.0 mm 0.00 in/hr0.0 mm/hr 0.00 in0.0 mm
01:04 PM 80.3°F26.8°C 25.0°F-3.9°C 13% 9.0 mph ESE14.5 kmh ESE 13.0 mph20.9 kmh 29.78 in1008.5 mb 0.00 in0.0 mm 0.00 in/hr0.0 mm/hr 0.00 in0.0 mm
12:59 PM 79.8°F26.6°C 26.4°F-3.1°C 14% 6.0 mph SE9.7 kmh SE 13.0 mph20.9 kmh 29.78 in1008.5 mb 0.00 in0.0 mm 0.00 in/hr0.0 mm/hr 0.00 in0.0 mm
12:54 PM 79.4°F26.3°C 24.3°F-4.3°C 13% 4.0 mph E6.4 kmh E 13.0 mph20.9 kmh 29.79 in1008.8 mb 0.00 in0.0 mm 0.00 in/hr0.0 mm/hr 0.00 in0.0 mm
12:49 PM 79.6°F26.4°C 24.4°F-4.2°C 13% 5.0 mph NE8.0 kmh NE 13.0 mph20.9 kmh 29.79 in1008.8 mb 0.00 in0.0 mm 0.00 in/hr0.0 mm/hr 0.00 in0.0 mm
12:44 PM 79.4°F26.3°C 24.3°F-4.3°C 13% 5.0 mph ESE8.0 kmh ESE 12.0 mph19.3 kmh 29.79 in1008.8 mb 0.00 in0.0 mm 0.00 in/hr0.0 mm/hr 0.00 in0.0 mm
12:39 PM 79.2°F26.2°C 25.9°F-3.4°C 14% 2.0 mph S3.2 kmh S 11.0 mph17.7 kmh 29.79 in1008.8 mb 0.00 in0.0 mm 0.00 in/hr0.0 mm/hr 0.00 in0.0 mm
12:34 PM 79.2°F26.2°C 27.6°F-2.4°C 15% 3.0 mph SE4.8 kmh SE 11.0 mph17.7 kmh 29.79 in1008.8 mb 0.00 in0.0 mm 0.00 in/hr0.0 mm/hr 0.00 in0.0 mm
12:29 PM 78.8°F26.0°C 25.6°F-3.6°C 14% 3.0 mph SE4.8 kmh SE 13.0 mph20.9 kmh 29.79 in1008.8 mb 0.00 in0.0 mm 0.00 in/hr0.0 mm/hr 0.00 in0.0 mm
12:24 PM 78.3°F25.7°C 23.4°F-4.8°C 13% 5.0 mph SE8.0 kmh SE 13.0 mph20.9 kmh 29.80 in1009.1 mb 0.00 in0.0 mm 0.00 in/hr0.0 mm/hr 0.00 in0.0 mm
12:19 PM 78.3°F25.7°C 23.4°F-4.8°C 13% 10.0 mph E16.1 kmh E 14.0 mph22.5 kmh 29.80 in1009.1 mb 0.00 in0.0 mm 0.00 in/hr0.0 mm/hr 0.00 in0.0 mm
12:14 PM 78.6°F25.9°C 23.6°F-4.7°C 13% 10.0 mph ENE16.1 kmh ENE 14.0 mph22.5 kmh 29.80 in1009.1 mb 0.00 in0.0 mm 0.00 in/hr0.0 mm/hr 0.00 in0.0 mm
12:09 PM 79.0°F26.1°C 25.7°F-3.5°C 14% 5.0 mph S8.0 kmh S 14.0 mph22.5 kmh 29.80 in1009.1 mb 0.00 in0.0 mm 0.00 in/hr0.0 mm/hr 0.00 in0.0 mm
12:04 PM 79.0°F26.1°C 27.4°F-2.6°C 15% 5.0 mph SE8.0 kmh SE 14.0 mph22.5 kmh 29.80 in1009.1 mb 0.00 in0.0 mm 0.00 in/hr0.0 mm/hr 0.00 in0.0 mm
11:59 AM 78.8°F26.0°C 25.6°F-3.6°C 14% 2.0 mph E3.2 kmh E 11.0 mph17.7 kmh 29.80 in1009.1 mb 0.00 in0.0 mm 0.00 in/hr0.0 mm/hr 0.00 in0.0 mm
11:54 AM 78.6°F25.9°C 25.4°F-3.7°C 14% 3.0 mph E4.8 kmh E 12.0 mph19.3 kmh 29.80 in1009.1 mb 0.00 in0.0 mm 0.00 in/hr0.0 mm/hr 0.00 in0.0 mm
11:49 AM 78.6°F25.9°C 25.4°F-3.7°C 14% 5.0 mph SSE8.0 kmh SSE 12.0 mph19.3 kmh 29.80 in1009.1 mb 0.00 in0.0 mm 0.00 in/hr0.0 mm/hr 0.00 in0.0 mm
11:44 AM 78.6°F25.9°C 27.1°F-2.7°C 15% 2.0 mph SE3.2 kmh SE 12.0 mph19.3 kmh 29.80 in1009.1 mb 0.00 in0.0 mm 0.00 in/hr0.0 mm/hr 0.00 in0.0 mm
11:39 AM 78.5°F25.8°C 28.6°F-1.9°C 16% 2.0 mph NE3.2 kmh NE 12.0 mph19.3 kmh 29.81 in1009.5 mb 0.00 in0.0 mm 0.00 in/hr0.0 mm/hr 0.00 in0.0 mm
11:34 AM 78.6°F25.9°C 25.4°F-3.7°C 14% 4.0 mph E6.4 kmh E 12.0 mph19.3 kmh 29.81 in1009.5 mb 0.00 in0.0 mm 0.00 in/hr0.0 mm/hr 0.00 in0.0 mm
11:29 AM 78.8°F26.0°C 25.6°F-3.6°C 14% 2.0 mph SE3.2 kmh SE 12.0 mph19.3 kmh 29.81 in1009.5 mb 0.00 in0.0 mm 0.00 in/hr0.0 mm/hr 0.00 in0.0 mm
11:24 AM 78.6°F25.9°C 30.1°F-1.1°C 17% 2.0 mph SE3.2 kmh SE 8.0 mph12.9 kmh 29.81 in1009.5 mb 0.00 in0.0 mm 0.00 in/hr0.0 mm/hr 0.00 in0.0 mm
11:19 AM 78.5°F25.8°C 25.3°F-3.7°C 14% 6.0 mph NE9.7 kmh NE 8.0 mph12.9 kmh 29.81 in1009.5 mb 0.00 in0.0 mm 0.00 in/hr0.0 mm/hr 0.00 in0.0 mm
11:14 AM 77.6°F25.3°C 29.3°F-1.5°C 17% 7.0 mph S11.3 kmh S 7.0 mph11.3 kmh 29.81 in1009.5 mb 0.00 in0.0 mm 0.00 in/hr0.0 mm/hr 0.00 in0.0 mm
11:09 AM 76.7°F24.8°C 27.1°F-2.7°C 16% 2.0 mph SW3.2 kmh SW 4.0 mph6.4 kmh 29.83 in1010.2 mb 0.00 in0.0 mm 0.00 in/hr0.0 mm/hr 0.00 in0.0 mm
11:04 AM 76.3°F24.6°C 28.3°F-2.1°C 17% 4.0 mph SSW6.4 kmh SSW 8.0 mph12.9 kmh 29.83 in1010.2 mb 0.00 in0.0 mm 0.00 in/hr0.0 mm/hr 0.00 in0.0 mm
10:59 AM 76.1°F24.5°C 25.1°F-3.8°C 15% 2.0 mph S3.2 kmh S 8.0 mph12.9 kmh 29.83 in1010.2 mb 0.00 in0.0 mm 0.00 in/hr0.0 mm/hr 0.00 in0.0 mm
10:54 AM 76.5°F24.7°C 25.4°F-3.7°C 15% 4.0 mph SW6.4 kmh SW 8.0 mph12.9 kmh 29.82 in1009.8 mb 0.00 in0.0 mm 0.00 in/hr0.0 mm/hr 0.00 in0.0 mm
10:49 AM 77.2°F25.1°C 26.0°F-3.3°C 15% 4.0 mph SW6.4 kmh SW 8.0 mph12.9 kmh 29.82 in1009.8 mb 0.00 in0.0 mm 0.00 in/hr0.0 mm/hr 0.00 in0.0 mm
10:44 AM 78.1°F25.6°C 26.7°F-2.9°C 15% 4.0 mph SSW6.4 kmh SSW 6.0 mph9.7 kmh 29.82 in1009.8 mb 0.00 in0.0 mm 0.00 in/hr0.0 mm/hr 0.00 in0.0 mm
10:39 AM 77.7°F25.4°C 27.9°F-2.3°C 16% 1.0 mph WSW1.6 kmh WSW 6.0 mph9.7 kmh 29.82 in1009.8 mb 0.00 in0.0 mm 0.00 in/hr0.0 mm/hr 0.00 in0.0 mm
10:34 AM 77.6°F25.3°C 26.3°F-3.2°C 15% 2.0 mph W3.2 kmh W 6.0 mph9.7 kmh 29.82 in1009.8 mb 0.00 in0.0 mm 0.00 in/hr0.0 mm/hr 0.00 in0.0 mm
10:29 AM 77.4°F25.2°C 27.7°F-2.4°C 16% 2.0 mph S3.2 kmh S 6.0 mph9.7 kmh 29.82 in1009.8 mb 0.00 in0.0 mm 0.00 in/hr0.0 mm/hr 0.00 in0.0 mm
10:24 AM 77.2°F25.1°C 27.5°F-2.5°C 16% 4.0 mph WSW6.4 kmh WSW 5.0 mph8.0 kmh 29.83 in1010.2 mb 0.00 in0.0 mm 0.00 in/hr0.0 mm/hr 0.00 in0.0 mm
10:19 AM 76.7°F24.8°C 27.1°F-2.7°C 16% 1.0 mph W1.6 kmh W 4.0 mph6.4 kmh 29.83 in1010.2 mb 0.00 in0.0 mm 0.00 in/hr0.0 mm/hr 0.00 in0.0 mm
10:14 AM 76.3°F24.6°C 26.8°F-2.9°C 16% 4.0 mph W6.4 kmh W 7.0 mph11.3 kmh 29.83 in1010.2 mb 0.00 in0.0 mm 0.00 in/hr0.0 mm/hr 0.00 in0.0 mm
10:09 AM 75.3°F24.1°C 26.0°F-3.3°C 16% 3.0 mph SSW4.8 kmh SSW 7.0 mph11.3 kmh 29.84 in1010.5 mb 0.00 in0.0 mm 0.00 in/hr0.0 mm/hr 0.00 in0.0 mm
10:04 AM 74.6°F23.7°C 25.4°F-3.7°C 16% 3.0 mph S4.8 kmh S 7.0 mph11.3 kmh 29.84 in1010.5 mb 0.00 in0.0 mm 0.00 in/hr0.0 mm/hr 0.00 in0.0 mm
09:59 AM 73.9°F23.3°C 24.9°F-3.9°C 16% 7.0 mph S11.3 kmh S 7.0 mph11.3 kmh 29.84 in1010.5 mb 0.00 in0.0 mm 0.00 in/hr0.0 mm/hr 0.00 in0.0 mm
09:54 AM 72.8°F22.7°C 25.4°F-3.7°C 17% 2.0 mph ESE3.2 kmh ESE 4.0 mph6.4 kmh 29.85 in1010.8 mb 0.00 in0.0 mm 0.00 in/hr0.0 mm/hr 0.00 in0.0 mm
09:49 AM 72.3°F22.4°C 27.7°F-2.4°C 19% 2.0 mph ESE3.2 kmh ESE 4.0 mph6.4 kmh 29.85 in1010.8 mb 0.00 in0.0 mm 0.00 in/hr0.0 mm/hr 0.00 in0.0 mm
09:44 AM 71.8°F22.1°C 24.6°F-4.1°C 17% Calm Calm 4.0 mph6.4 kmh 29.85 in1010.8 mb 0.00 in0.0 mm 0.00 in/hr0.0 mm/hr 0.00 in0.0 mm
09:39 AM 71.5°F21.9°C 24.4°F-4.2°C 17% 2.0 mph SE3.2 kmh SE 3.0 mph4.8 kmh 29.86 in1011.2 mb 0.00 in0.0 mm 0.00 in/hr0.0 mm/hr 0.00 in0.0 mm
09:34 AM 70.9°F21.6°C 23.9°F-4.5°C 17% Calm Calm 3.0 mph4.8 kmh 29.86 in1011.2 mb 0.00 in0.0 mm 0.00 in/hr0.0 mm/hr 0.00 in0.0 mm
09:29 AM 70.8°F21.6°C 23.8°F-4.6°C 17% Calm Calm 3.0 mph4.8 kmh 29.86 in1011.2 mb 0.00 in0.0 mm 0.00 in/hr0.0 mm/hr 0.00 in0.0 mm
09:24 AM 69.8°F21.0°C 24.4°F-4.2°C 18% 1.0 mph ESE1.6 kmh ESE 1.0 mph1.6 kmh 29.87 in1011.5 mb 0.00 in0.0 mm 0.00 in/hr0.0 mm/hr 0.00 in0.0 mm
09:19 AM 68.8°F20.4°C 24.9°F-3.9°C 19% 1.0 mph ESE1.6 kmh ESE 3.0 mph4.8 kmh 29.87 in1011.5 mb 0.00 in0.0 mm 0.00 in/hr0.0 mm/hr 0.00 in0.0 mm
09:14 AM 67.6°F19.8°C 23.9°F-4.5°C 19% 1.0 mph E1.6 kmh E 3.0 mph4.8 kmh 29.87 in1011.5 mb 0.00 in0.0 mm 0.00 in/hr0.0 mm/hr 0.00 in0.0 mm
09:09 AM 66.3°F19.1°C 24.0°F-4.4°C 20% 2.0 mph E3.2 kmh E 4.0 mph6.4 kmh 29.87 in1011.5 mb 0.00 in0.0 mm 0.00 in/hr0.0 mm/hr 0.00 in0.0 mm
09:04 AM 65.3°F18.5°C 24.4°F-4.2°C 21% 1.0 mph E1.6 kmh E 4.0 mph6.4 kmh 29.87 in1011.5 mb 0.00 in0.0 mm 0.00 in/hr0.0 mm/hr 0.00 in0.0 mm
08:59 AM 64.7°F18.2°C 23.9°F-4.5°C 21% 1.0 mph E1.6 kmh E 5.0 mph8.0 kmh 29.87 in1011.5 mb 0.00 in0.0 mm 0.00 in/hr0.0 mm/hr 0.00 in0.0 mm
08:54 AM 64.2°F17.9°C 22.3°F-5.4°C 20% 1.0 mph E1.6 kmh E 5.0 mph8.0 kmh 29.88 in1011.9 mb 0.00 in0.0 mm 0.00 in/hr0.0 mm/hr 0.00 in0.0 mm
08:49 AM 63.5°F17.5°C 21.7°F-5.7°C 20% 2.0 mph ENE3.2 kmh ENE 5.0 mph8.0 kmh 29.88 in1011.9 mb 0.00 in0.0 mm 0.00 in/hr0.0 mm/hr 0.00 in0.0 mm
08:44 AM 62.3°F16.8°C 20.7°F-6.3°C 20% 4.0 mph ENE6.4 kmh ENE 5.0 mph8.0 kmh 29.88 in1011.9 mb 0.00 in0.0 mm 0.00 in/hr0.0 mm/hr 0.00 in0.0 mm
08:39 AM 60.5°F15.8°C 21.5°F-5.8°C 22% 3.0 mph NE4.8 kmh NE 4.0 mph6.4 kmh 29.89 in1012.2 mb 0.00 in0.0 mm 0.00 in/hr0.0 mm/hr 0.00 in0.0 mm
08:34 AM 59.0°F15.0°C 22.3°F-5.4°C 24% Calm Calm 1.0 mph1.6 kmh 29.89 in1012.2 mb 0.00 in0.0 mm 0.00 in/hr0.0 mm/hr 0.00 in0.0 mm
08:29 AM 58.4°F14.7°C 22.7°F-5.2°C 25% Calm Calm 1.0 mph1.6 kmh 29.89 in1012.2 mb 0.00 in0.0 mm 0.00 in/hr0.0 mm/hr 0.00 in0.0 mm
08:24 AM 58.1°F14.5°C 21.5°F-5.8°C 24% 1.0 mph NE1.6 kmh NE 1.0 mph1.6 kmh 29.88 in1011.9 mb 0.00 in0.0 mm 0.00 in/hr0.0 mm/hr 0.00 in0.0 mm
08:19 AM 58.1°F14.5°C 22.5°F-5.3°C 25% Calm Calm 2.0 mph3.2 kmh 29.88 in1011.9 mb 0.00 in0.0 mm 0.00 in/hr0.0 mm/hr 0.00 in0.0 mm
08:14 AM 58.0°F14.4°C 21.4°F-5.9°C 24% 1.0 mph NE1.6 kmh NE 3.0 mph4.8 kmh 29.88 in1011.9 mb 0.00 in0.0 mm 0.00 in/hr0.0 mm/hr 0.00 in0.0 mm
08:09 AM 58.0°F14.4°C 21.4°F-5.9°C 24% 2.0 mph NE3.2 kmh NE 4.0 mph6.4 kmh 29.88 in1011.9 mb 0.00 in0.0 mm 0.00 in/hr0.0 mm/hr 0.00 in0.0 mm
08:04 AM 57.3°F14.1°C 21.8°F-5.7°C 25% 2.0 mph NE3.2 kmh NE 4.0 mph6.4 kmh 29.88 in1011.9 mb 0.00 in0.0 mm 0.00 in/hr0.0 mm/hr 0.00 in0.0 mm
07:59 AM 56.0°F13.3°C 21.6°F-5.8°C 26% 1.0 mph NE1.6 kmh NE 4.0 mph6.4 kmh 29.88 in1011.9 mb 0.00 in0.0 mm 0.00 in/hr0.0 mm/hr 0.00 in0.0 mm
07:54 AM 55.0°F12.8°C 21.6°F-5.8°C 27% 2.0 mph NE3.2 kmh NE 4.0 mph6.4 kmh 29.88 in1011.9 mb 0.00 in0.0 mm 0.00 in/hr0.0 mm/hr 0.00 in0.0 mm
07:49 AM 54.1°F12.3°C 20.9°F-6.2°C 27% 2.0 mph NE3.2 kmh NE 2.0 mph3.2 kmh 29.88 in1011.9 mb 0.00 in0.0 mm 0.00 in/hr0.0 mm/hr 0.00 in0.0 mm
07:44 AM 53.8°F12.1°C 21.5°F-5.8°C 28% 1.0 mph NE1.6 kmh NE 1.0 mph1.6 kmh 29.88 in1011.9 mb 0.00 in0.0 mm 0.00 in/hr0.0 mm/hr 0.00 in0.0 mm
07:39 AM 53.8°F12.1°C 20.6°F-6.3°C 27% 1.0 mph NE1.6 kmh NE 3.0 mph4.8 kmh 29.87 in1011.5 mb 0.00 in0.0 mm 0.00 in/hr0.0 mm/hr 0.00 in0.0 mm
07:34 AM 53.8°F12.1°C 21.5°F-5.8°C 28% 2.0 mph NE3.2 kmh NE 2.0 mph3.2 kmh 29.87 in1011.5 mb 0.00 in0.0 mm 0.00 in/hr0.0 mm/hr 0.00 in0.0 mm
07:29 AM 53.8°F12.1°C 21.5°F-5.8°C 28% Calm Calm 3.0 mph4.8 kmh 29.87 in1011.5 mb 0.00 in0.0 mm 0.00 in/hr0.0 mm/hr 0.00 in0.0 mm
07:24 AM 54.1°F12.3°C 20.9°F-6.2°C 27% Calm Calm 3.0 mph4.8 kmh 29.87 in1011.5 mb 0.00 in0.0 mm 0.00 in/hr0.0 mm/hr 0.00 in0.0 mm
07:19 AM 54.5°F12.5°C 21.2°F-6.0°C 27% 2.0 mph ENE3.2 kmh ENE 2.0 mph3.2 kmh 29.87 in1011.5 mb 0.00 in0.0 mm 0.00 in/hr0.0 mm/hr 0.00 in0.0 mm
07:14 AM 55.3°F12.9°C 21.9°F-5.6°C 27% Calm Calm 1.0 mph1.6 kmh 29.87 in1011.5 mb 0.00 in0.0 mm 0.00 in/hr0.0 mm/hr 0.00 in0.0 mm
07:09 AM 55.7°F13.2°C 22.2°F-5.4°C 27% Calm Calm -- 29.86 in1011.2 mb 0.00 in0.0 mm 0.00 in/hr0.0 mm/hr 0.00 in0.0 mm
07:04 AM 56.0°F13.3°C 21.6°F-5.8°C 26% 2.0 mph ENE3.2 kmh ENE 4.0 mph6.4 kmh 29.86 in1011.2 mb 0.00 in0.0 mm 0.00 in/hr0.0 mm/hr 0.00 in0.0 mm
06:59 AM 56.3°F13.5°C 22.8°F-5.1°C 27% 2.0 mph ENE3.2 kmh ENE 5.0 mph8.0 kmh 29.86 in1011.2 mb 0.00 in0.0 mm 0.00 in/hr0.0 mm/hr 0.00 in0.0 mm
06:54 AM 56.3°F13.5°C 23.6°F-4.7°C 28% 2.0 mph ENE3.2 kmh ENE 5.0 mph8.0 kmh 29.86 in1011.2 mb 0.00 in0.0 mm 0.00 in/hr0.0 mm/hr 0.00 in0.0 mm
06:49 AM 55.6°F13.1°C 23.0°F-5.0°C 28% 3.0 mph NE4.8 kmh NE 5.0 mph8.0 kmh 29.86 in1011.2 mb 0.00 in0.0 mm 0.00 in/hr0.0 mm/hr 0.00 in0.0 mm
06:44 AM 54.4°F12.4°C 22.0°F-5.6°C 28% 3.0 mph NE4.8 kmh NE 5.0 mph8.0 kmh 29.86 in1011.2 mb 0.00 in0.0 mm 0.00 in/hr0.0 mm/hr 0.00 in0.0 mm
06:39 AM 53.3°F11.8°C 20.2°F-6.6°C 27% 2.0 mph NE3.2 kmh NE 4.0 mph6.4 kmh 29.86 in1011.2 mb 0.00 in0.0 mm 0.00 in/hr0.0 mm/hr 0.00 in0.0 mm
06:34 AM 53.1°F11.7°C 20.9°F-6.2°C 28% 1.0 mph NE1.6 kmh NE 4.0 mph6.4 kmh 29.86 in1011.2 mb 0.00 in0.0 mm 0.00 in/hr0.0 mm/hr 0.00 in0.0 mm
06:29 AM 52.8°F11.6°C 20.6°F-6.3°C 28% 2.0 mph NE3.2 kmh NE 2.0 mph3.2 kmh 29.86 in1011.2 mb 0.00 in0.0 mm 0.00 in/hr0.0 mm/hr 0.00 in0.0 mm
06:24 AM 52.5°F11.4°C 20.4°F-6.4°C 28% Calm Calm 1.0 mph1.6 kmh 29.86 in1011.2 mb 0.00 in0.0 mm 0.00 in/hr0.0 mm/hr 0.00 in0.0 mm
06:19 AM 52.6°F11.4°C 20.4°F-6.4°C 28% 1.0 mph NE1.6 kmh NE 3.0 mph4.8 kmh 29.86 in1011.2 mb 0.00 in0.0 mm 0.00 in/hr0.0 mm/hr 0.00 in0.0 mm
06:14 AM 52.6°F11.4°C 20.4°F-6.4°C 28% 1.0 mph NE1.6 kmh NE 3.0 mph4.8 kmh 29.86 in1011.2 mb 0.00 in0.0 mm 0.00 in/hr0.0 mm/hr 0.00 in0.0 mm
06:09 AM 52.6°F11.4°C 20.4°F-6.4°C 28% 3.0 mph NE4.8 kmh NE 3.0 mph4.8 kmh 29.85 in1010.8 mb 0.00 in0.0 mm 0.00 in/hr0.0 mm/hr 0.00 in0.0 mm
06:04 AM 52.8°F11.6°C 20.6°F-6.3°C 28% 1.0 mph NE1.6 kmh NE 2.0 mph3.2 kmh 29.85 in1010.8 mb 0.00 in0.0 mm 0.00 in/hr0.0 mm/hr 0.00 in0.0 mm
05:59 AM 52.9°F11.6°C 19.8°F-6.8°C 27% 1.0 mph NE1.6 kmh NE 3.0 mph4.8 kmh 29.85 in1010.8 mb 0.00 in0.0 mm 0.00 in/hr0.0 mm/hr 0.00 in0.0 mm
05:54 AM 53.1°F11.7°C 20.9°F-6.2°C 28% 1.0 mph NE1.6 kmh NE 2.0 mph3.2 kmh 29.84 in1010.5 mb 0.00 in0.0 mm 0.00 in/hr0.0 mm/hr 0.00 in0.0 mm
05:49 AM 53.3°F11.8°C 21.0°F-6.1°C 28% Calm Calm 3.0 mph4.8 kmh 29.84 in1010.5 mb 0.00 in0.0 mm 0.00 in/hr0.0 mm/hr 0.00 in0.0 mm
05:44 AM 53.6°F12.0°C 20.4°F-6.4°C 27% 1.0 mph NE1.6 kmh NE 3.0 mph4.8 kmh 29.84 in1010.5 mb 0.00 in0.0 mm 0.00 in/hr0.0 mm/hr 0.00 in0.0 mm
05:39 AM 53.6°F12.0°C 20.4°F-6.4°C 27% 2.0 mph NE3.2 kmh NE 3.0 mph4.8 kmh 29.84 in1010.5 mb 0.00 in0.0 mm 0.00 in/hr0.0 mm/hr 0.00 in0.0 mm
05:34 AM 53.3°F11.8°C 20.2°F-6.6°C 27% 2.0 mph NE3.2 kmh NE 3.0 mph4.8 kmh 29.84 in1010.5 mb 0.00 in0.0 mm 0.00 in/hr0.0 mm/hr 0.00 in0.0 mm
05:29 AM 53.1°F11.7°C 20.0°F-6.7°C 27% 2.0 mph NE3.2 kmh NE 3.0 mph4.8 kmh 29.84 in1010.5 mb 0.00 in0.0 mm 0.00 in/hr0.0 mm/hr 0.00 in0.0 mm
05:24 AM 52.8°F11.6°C 20.6°F-6.3°C 28% Calm Calm 1.0 mph1.6 kmh 29.84 in1010.5 mb 0.00 in0.0 mm 0.00 in/hr0.0 mm/hr 0.00 in0.0 mm
05:19 AM 52.6°F11.4°C 19.6°F-6.9°C 27% Calm Calm 1.0 mph1.6 kmh 29.84 in1010.5 mb 0.00 in0.0 mm 0.00 in/hr0.0 mm/hr 0.00 in0.0 mm
05:14 AM 52.8°F11.6°C 19.8°F-6.8°C 27% Calm Calm 1.0 mph1.6 kmh 29.84 in1010.5 mb 0.00 in0.0 mm 0.00 in/hr0.0 mm/hr 0.00 in0.0 mm
05:09 AM 52.9°F11.6°C 19.0°F-7.2°C 26% Calm Calm 1.0 mph1.6 kmh 29.83 in1010.2 mb 0.00 in0.0 mm 0.00 in/hr0.0 mm/hr 0.00 in0.0 mm
05:04 AM 53.1°F11.7°C 20.0°F-6.7°C 27% Calm Calm 1.0 mph1.6 kmh 29.83 in1010.2 mb 0.00 in0.0 mm 0.00 in/hr0.0 mm/hr 0.00 in0.0 mm
04:59 AM 53.3°F11.8°C 20.2°F-6.6°C 27% 1.0 mph NE1.6 kmh NE 3.0 mph4.8 kmh 29.83 in1010.2 mb 0.00 in0.0 mm 0.00 in/hr0.0 mm/hr 0.00 in0.0 mm
04:54 AM 53.6°F12.0°C 20.4°F-6.4°C 27% 2.0 mph NE3.2 kmh NE 3.0 mph4.8 kmh 29.83 in1010.2 mb 0.00 in0.0 mm 0.00 in/hr0.0 mm/hr 0.00 in0.0 mm
04:49 AM 53.6°F12.0°C 20.4°F-6.4°C 27% 1.0 mph NE1.6 kmh NE 3.0 mph4.8 kmh 29.83 in1010.2 mb 0.00 in0.0 mm 0.00 in/hr0.0 mm/hr 0.00 in0.0 mm
04:44 AM 53.6°F12.0°C 20.4°F-6.4°C 27% 3.0 mph NE4.8 kmh NE 3.0 mph4.8 kmh 29.83 in1010.2 mb 0.00 in0.0 mm 0.00 in/hr0.0 mm/hr 0.00 in0.0 mm
04:39 AM 53.5°F11.9°C 20.4°F-6.4°C 27% Calm Calm 2.0 mph3.2 kmh 29.84 in1010.5 mb 0.00 in0.0 mm 0.00 in/hr0.0 mm/hr 0.00 in0.0 mm
04:34 AM 53.6°F12.0°C 19.6°F-6.9°C 26% Calm Calm 2.0 mph3.2 kmh 29.84 in1010.5 mb 0.00 in0.0 mm 0.00 in/hr0.0 mm/hr 0.00 in0.0 mm
04:29 AM 53.5°F11.9°C 19.5°F-6.9°C 26% 1.0 mph NE1.6 kmh NE 2.0 mph3.2 kmh 29.84 in1010.5 mb 0.00 in0.0 mm 0.00 in/hr0.0 mm/hr 0.00 in0.0 mm
04:24 AM 53.6°F12.0°C 19.6°F-6.9°C 26% 1.0 mph NE1.6 kmh NE 2.0 mph3.2 kmh 29.84 in1010.5 mb 0.00 in0.0 mm 0.00 in/hr0.0 mm/hr 0.00 in0.0 mm
04:19 AM 53.9°F12.2°C 19.8°F-6.8°C 26% 2.0 mph NE3.2 kmh NE 2.0 mph3.2 kmh 29.84 in1010.5 mb 0.00 in0.0 mm 0.00 in/hr0.0 mm/hr 0.00 in0.0 mm
04:14 AM 54.2°F12.3°C 20.1°F-6.6°C 26% Calm Calm 2.0 mph3.2 kmh 29.84 in1010.5 mb 0.00 in0.0 mm 0.00 in/hr0.0 mm/hr 0.00 in0.0 mm
04:09 AM 54.5°F12.5°C 19.4°F-7.0°C 25% Calm Calm 3.0 mph4.8 kmh 29.83 in1010.2 mb 0.00 in0.0 mm 0.00 in/hr0.0 mm/hr 0.00 in0.0 mm
04:04 AM 54.7°F12.6°C 19.6°F-6.9°C 25% 2.0 mph NE3.2 kmh NE 4.0 mph6.4 kmh 29.83 in1010.2 mb 0.00 in0.0 mm 0.00 in/hr0.0 mm/hr 0.00 in0.0 mm
03:59 AM 54.8°F12.7°C 20.6°F-6.3°C 26% 1.0 mph NE1.6 kmh NE 4.0 mph6.4 kmh 29.83 in1010.2 mb 0.00 in0.0 mm 0.00 in/hr0.0 mm/hr 0.00 in0.0 mm
03:54 AM 54.7°F12.6°C 20.5°F-6.4°C 26% 2.0 mph NE3.2 kmh NE 4.0 mph6.4 kmh 29.83 in1010.2 mb 0.00 in0.0 mm 0.00 in/hr0.0 mm/hr 0.00 in0.0 mm
03:49 AM 54.5°F12.5°C 20.3°F-6.5°C 26% 2.0 mph NE3.2 kmh NE 4.0 mph6.4 kmh 29.83 in1010.2 mb 0.00 in0.0 mm 0.00 in/hr0.0 mm/hr 0.00 in0.0 mm
03:44 AM 54.7°F12.6°C 19.6°F-6.9°C 25% Calm Calm 1.0 mph1.6 kmh 29.83 in1010.2 mb 0.00 in0.0 mm 0.00 in/hr0.0 mm/hr 0.00 in0.0 mm
03:39 AM 54.8°F12.7°C 18.7°F-7.4°C 24% Calm Calm 2.0 mph3.2 kmh 29.83 in1010.2 mb 0.00 in0.0 mm 0.00 in/hr0.0 mm/hr 0.00 in0.0 mm
03:34 AM 55.1°F12.8°C 19.0°F-7.2°C 24% Calm Calm -- 29.83 in1010.2 mb 0.00 in0.0 mm 0.00 in/hr0.0 mm/hr 0.00 in0.0 mm
03:29 AM 55.3°F12.9°C 19.1°F-7.2°C 24% Calm Calm -- 29.83 in1010.2 mb 0.00 in0.0 mm 0.00 in/hr0.0 mm/hr 0.00 in0.0 mm
03:24 AM 55.3°F12.9°C 19.1°F-7.2°C 24% 1.0 mph NE1.6 kmh NE 3.0 mph4.8 kmh 29.83 in1010.2 mb 0.00 in0.0 mm 0.00 in/hr0.0 mm/hr 0.00 in0.0 mm
03:19 AM 55.6°F13.1°C 19.4°F-7.0°C 24% 2.0 mph NE3.2 kmh NE 3.0 mph4.8 kmh 29.83 in1010.2 mb 0.00 in0.0 mm 0.00 in/hr0.0 mm/hr 0.00 in0.0 mm
03:14 AM 55.6°F13.1°C 20.3°F-6.5°C 25% 1.0 mph NE1.6 kmh NE 3.0 mph4.8 kmh 29.83 in1010.2 mb 0.00 in0.0 mm 0.00 in/hr0.0 mm/hr 0.00 in0.0 mm
03:09 AM 55.4°F13.0°C 19.2°F-7.1°C 24% 3.0 mph NE4.8 kmh NE 3.0 mph4.8 kmh 29.83 in1010.2 mb 0.00 in0.0 mm 0.00 in/hr0.0 mm/hr 0.00 in0.0 mm
03:04 AM 55.7°F13.2°C 18.5°F-7.5°C 23% Calm Calm -- 29.83 in1010.2 mb 0.00 in0.0 mm 0.00 in/hr0.0 mm/hr 0.00 in0.0 mm
02:59 AM 55.9°F13.3°C 17.6°F-8.0°C 22% 1.0 mph NE1.6 kmh NE 1.0 mph1.6 kmh 29.83 in1010.2 mb 0.00 in0.0 mm 0.00 in/hr0.0 mm/hr 0.00 in0.0 mm
02:54 AM 56.0°F13.3°C 17.7°F-7.9°C 22% Calm Calm -- 29.83 in1010.2 mb 0.00 in0.0 mm 0.00 in/hr0.0 mm/hr 0.00 in0.0 mm
02:49 AM 56.0°F13.3°C 17.7°F-7.9°C 22% 2.0 mph NE3.2 kmh NE 3.0 mph4.8 kmh 29.83 in1010.2 mb 0.00 in0.0 mm 0.00 in/hr0.0 mm/hr 0.00 in0.0 mm
02:44 AM 56.5°F13.6°C 17.0°F-8.3°C 21% 3.0 mph NE4.8 kmh NE 3.0 mph4.8 kmh 29.83 in1010.2 mb 0.00 in0.0 mm 0.00 in/hr0.0 mm/hr 0.00 in0.0 mm
02:39 AM 57.0°F13.9°C 17.5°F-8.1°C 21% 1.0 mph NE1.6 kmh NE 2.0 mph3.2 kmh 29.83 in1010.2 mb 0.00 in0.0 mm 0.00 in/hr0.0 mm/hr 0.00 in0.0 mm
02:34 AM 57.2°F14.0°C 17.6°F-8.0°C 21% Calm Calm 1.0 mph1.6 kmh 29.83 in1010.2 mb 0.00 in0.0 mm 0.00 in/hr0.0 mm/hr 0.00 in0.0 mm
02:29 AM 57.2°F14.0°C 17.6°F-8.0°C 21% 1.0 mph NE1.6 kmh NE 2.0 mph3.2 kmh 29.83 in1010.2 mb 0.00 in0.0 mm 0.00 in/hr0.0 mm/hr 0.00 in0.0 mm
02:24 AM 56.9°F13.8°C 17.4°F-8.1°C 21% 1.0 mph NE1.6 kmh NE 3.0 mph4.8 kmh 29.84 in1010.5 mb 0.00 in0.0 mm 0.00 in/hr0.0 mm/hr 0.00 in0.0 mm
02:19 AM 56.6°F13.7°C 17.1°F-8.3°C 21% Calm Calm 3.0 mph4.8 kmh 29.84 in1010.5 mb 0.00 in0.0 mm 0.00 in/hr0.0 mm/hr 0.00 in0.0 mm
02:14 AM 56.5°F13.6°C 18.1°F-7.7°C 22% 1.0 mph NE1.6 kmh NE 3.0 mph4.8 kmh 29.84 in1010.5 mb 0.00 in0.0 mm 0.00 in/hr0.0 mm/hr 0.00 in0.0 mm
02:09 AM 56.6°F13.7°C 17.1°F-8.3°C 21% 2.0 mph NE3.2 kmh NE 3.0 mph4.8 kmh 29.85 in1010.8 mb 0.00 in0.0 mm 0.00 in/hr0.0 mm/hr 0.00 in0.0 mm
02:04 AM 56.9°F13.8°C 18.5°F-7.5°C 22% 2.0 mph NE3.2 kmh NE 2.0 mph3.2 kmh 29.85 in1010.8 mb 0.00 in0.0 mm 0.00 in/hr0.0 mm/hr 0.00 in0.0 mm
01:59 AM 57.0°F13.9°C 17.5°F-8.1°C 21% 1.0 mph NE1.6 kmh NE 4.0 mph6.4 kmh 29.85 in1010.8 mb 0.00 in0.0 mm 0.00 in/hr0.0 mm/hr 0.00 in0.0 mm
01:54 AM 56.7°F13.7°C 18.3°F-7.6°C 22% 2.0 mph NE3.2 kmh NE 4.0 mph6.4 kmh 29.85 in1010.8 mb 0.00 in0.0 mm 0.00 in/hr0.0 mm/hr 0.00 in0.0 mm
01:49 AM 56.7°F13.7°C 18.3°F-7.6°C 22% 1.0 mph ENE1.6 kmh ENE 3.0 mph4.8 kmh 29.85 in1010.8 mb 0.00 in0.0 mm 0.00 in/hr0.0 mm/hr 0.00 in0.0 mm
01:44 AM 57.0°F13.9°C 18.5°F-7.5°C 22% Calm Calm 3.0 mph4.8 kmh 29.85 in1010.8 mb 0.00 in0.0 mm 0.00 in/hr0.0 mm/hr 0.00 in0.0 mm
01:39 AM 57.2°F14.0°C 18.7°F-7.4°C 22% 1.0 mph ENE1.6 kmh ENE 2.0 mph3.2 kmh 29.84 in1010.5 mb 0.00 in0.0 mm 0.00 in/hr0.0 mm/hr 0.00 in0.0 mm
01:34 AM 57.2°F14.0°C 18.7°F-7.4°C 22% Calm Calm 3.0 mph4.8 kmh 29.84 in1010.5 mb 0.00 in0.0 mm 0.00 in/hr0.0 mm/hr 0.00 in0.0 mm
01:29 AM 57.5°F14.2°C 19.0°F-7.2°C 22% Calm Calm 3.0 mph4.8 kmh 29.84 in1010.5 mb 0.00 in0.0 mm 0.00 in/hr0.0 mm/hr 0.00 in0.0 mm
01:24 AM 57.5°F14.2°C 17.9°F-7.8°C 21% Calm Calm 1.0 mph1.6 kmh 29.85 in1010.8 mb 0.00 in0.0 mm 0.00 in/hr0.0 mm/hr 0.00 in0.0 mm
01:19 AM 57.2°F14.0°C 17.6°F-8.0°C 21% Calm Calm -- 29.85 in1010.8 mb 0.00 in0.0 mm 0.00 in/hr0.0 mm/hr 0.00 in0.0 mm
01:14 AM 57.2°F14.0°C 17.6°F-8.0°C 21% Calm Calm -- 29.85 in1010.8 mb 0.00 in0.0 mm 0.00 in/hr0.0 mm/hr 0.00 in0.0 mm
01:09 AM 57.3°F14.1°C 18.8°F-7.3°C 22% Calm Calm 2.0 mph3.2 kmh 29.85 in1010.8 mb 0.00 in0.0 mm 0.00 in/hr0.0 mm/hr 0.00 in0.0 mm
01:04 AM 57.5°F14.2°C 19.0°F-7.2°C 22% Calm Calm 2.0 mph3.2 kmh 29.85 in1010.8 mb 0.00 in0.0 mm 0.00 in/hr0.0 mm/hr 0.00 in0.0 mm
12:59 AM 57.3°F14.1°C 18.8°F-7.3°C 22% 1.0 mph ENE1.6 kmh ENE 1.0 mph1.6 kmh 29.85 in1010.8 mb 0.00 in0.0 mm 0.00 in/hr0.0 mm/hr 0.00 in0.0 mm
12:54 AM 57.2°F14.0°C 18.7°F-7.4°C 22% 2.0 mph ENE3.2 kmh ENE 5.0 mph8.0 kmh 29.85 in1010.8 mb 0.00 in0.0 mm 0.00 in/hr0.0 mm/hr 0.00 in0.0 mm
12:49 AM 57.3°F14.1°C 17.7°F-7.9°C 21% 1.0 mph ENE1.6 kmh ENE 5.0 mph8.0 kmh 29.85 in1010.8 mb 0.00 in0.0 mm 0.00 in/hr0.0 mm/hr 0.00 in0.0 mm
12:44 AM 57.5°F14.2°C 17.9°F-7.8°C 21% 2.0 mph ENE3.2 kmh ENE 3.0 mph4.8 kmh 29.85 in1010.8 mb 0.00 in0.0 mm 0.00 in/hr0.0 mm/hr 0.00 in0.0 mm
12:39 AM 57.6°F14.2°C 18.0°F-7.8°C 21% 2.0 mph ENE3.2 kmh ENE 3.0 mph4.8 kmh 29.85 in1010.8 mb 0.00 in0.0 mm 0.00 in/hr0.0 mm/hr 0.00 in0.0 mm
12:34 AM 58.0°F14.4°C 18.3°F-7.6°C 21% Calm Calm 1.0 mph1.6 kmh 29.85 in1010.8 mb 0.00 in0.0 mm 0.00 in/hr0.0 mm/hr 0.00 in0.0 mm
12:29 AM 58.3°F14.6°C 17.4°F-8.1°C 20% Calm Calm -- 29.85 in1010.8 mb 0.00 in0.0 mm 0.00 in/hr0.0 mm/hr 0.00 in0.0 mm
12:24 AM 58.4°F14.7°C 17.5°F-8.1°C 20% 1.0 mph NE1.6 kmh NE 4.0 mph6.4 kmh 29.84 in1010.5 mb 0.00 in0.0 mm 0.00 in/hr0.0 mm/hr 0.00 in0.0 mm
12:19 AM 58.4°F14.7°C 17.5°F-8.1°C 20% 2.0 mph NE3.2 kmh NE 3.0 mph4.8 kmh 29.84 in1010.5 mb 0.00 in0.0 mm 0.00 in/hr0.0 mm/hr 0.00 in0.0 mm
12:14 AM 58.6°F14.8°C 17.7°F-7.9°C 20% 2.0 mph NE3.2 kmh NE 6.0 mph9.7 kmh 29.84 in1010.5 mb 0.00 in0.0 mm 0.00 in/hr0.0 mm/hr 0.00 in0.0 mm
12:09 AM 58.7°F14.8°C 17.7°F-7.9°C 20% 2.0 mph NE3.2 kmh NE 6.0 mph9.7 kmh 29.86 in1011.2 mb 0.00 in0.0 mm 0.00 in/hr0.0 mm/hr 0.00 in0.0 mm
12:04 AM 58.7°F14.8°C 17.7°F-7.9°C 20% 2.0 mph NE3.2 kmh NE 6.0 mph9.7 kmh 29.86 in1011.2 mb 0.00 in0.0 mm 0.00 in/hr0.0 mm/hr 0.00 in0.0 mm